Impacts TAF Board
For situational awareness. Not to be used for flight planning purposes.
IDs:

KPHX - Phoenix/Sky Harbor, AZ, US

Issued at 1720 UTC 02 Oct 2022
Updated at 1938 UTC 02 Oct 2022
Potential Impact None Slight Moderate High
Time1851Z 02/20Z 02/21Z 02/22Z 02/23Z 03/00Z 03/01Z 03/02Z 03/03Z 03/04Z 03/05Z 03/06Z 03/07Z 03/08Z>>
Type OBS PRVL PRVL PRVL PRVL PRVL PRVL PRVL PRVL PRVL PRVL PRVL PRVL PRVL
VIS 10 >6 >6 >6 >6 >6 >6 >6 >6 >6 >6 >6 >6 >6
CIG -- -- -- -- -- -- -- -- -- -- -- -- -- --
Cover FEW FEW FEW FEW FEW FEW FEW FEW FEW SCT SCT SCT SCT SCT
FltCat VFR VFR VFR VFR VFR VFR VFR VFR VFR VFR VFR VFR VFR VFR
WX -- -- -- -- -- -- -- -- -- -- -- -- -- --
WDir 120 160 160 210 210 250 250 250 250 100 100 100 100 100
WSpd 6 7 7 7 7 6 6 6 6 5 5 5 5 5
WGst -- -- -- -- -- -- -- -- -- -- -- -- -- --
WSHgt -- -- -- -- -- -- -- -- -- -- -- -- -- --
WSDir -- -- -- -- -- -- -- -- -- -- -- -- -- --
WSSpd -- -- -- -- -- -- -- -- -- -- -- -- -- --
Raw TAF
KPHX 021720Z 0218/0324 16007KT P6SM FEW100 FEW150
  FM022200 21007KT P6SM FEW100 FEW150
  FM030000 25006KT P6SM FEW100 FEW150
  FM030400 10005KT P6SM FEW100 SCT150 SCT250
  FM031700 14008KT P6SM FEW100 FEW150
  FM032100 28008KT P6SM FEW100 FEW150


Raw METAR
KPHX 021851Z 12006KT 10SM FEW100 FEW250 33/13 A2990 RMK AO2 SLP104 TCU DSNT NW T03280133 $
KPHX 021751Z 13005KT 10SM FEW100 FEW200 32/14 A2991 RMK AO2 SLP109 T03220144 10322 20256 50003 $
KPHX 021651Z 16006KT 10SM FEW100 FEW160 31/16 A2992 RMK AO2 SLP112 T03110156 $

METAR Board
Radar Display
Forecast Discussion
For situational awareness. Not to be used for flight planning purposes.